Time;durP1;ratioP1;P1;durP2;ratioP2;P2;SDS_P1;SDS_P2;PMS_P1;PMS_P2;Temp;Humidity;BMP_temperature;BMP_pressure;BME280_temperature;BME280_humidity;BME280_pressure;Samples;Min_cycle;Max_cycle;Signal;HPM_P1;HPM_P2
2022/07/06 00:02:20;;;;;;;4.82;2.38;;;15.00;99.90;;;;;;5059285;28;20119;-74
2022/07/06 00:04:46;;;;;;;4.93;2.33;;;15.00;99.90;;;;;;5067586;28;20044;-74
2022/07/06 00:07:13;;;;;;;6.38;2.90;;;14.90;99.90;;;;;;5062557;28;20071;-74
2022/07/06 00:09:40;;;;;;;;;;;14.80;99.90;;;;;;5049527;28;20045;-74
2022/07/06 00:12:06;;;;;;;6.13;2.58;;;14.80;99.90;;;;;;5049952;28;19935;-74
2022/07/06 00:14:32;;;;;;;7.38;2.95;;;14.80;99.90;;;;;;5053633;28;20132;-73
2022/07/06 00:16:57;;;;;;;7.32;2.55;;;14.80;99.90;;;;;;5065689;28;20119;-74
2022/07/06 00:19:23;;;;;;;6.22;2.50;;;14.80;99.90;;;;;;5064475;28;20083;-74
2022/07/06 00:21:48;;;;;;;12.10;2.88;;;14.70;99.90;;;;;;5059454;28;20476;-74
2022/07/06 00:24:14;;;;;;;6.85;3.08;;;14.80;99.90;;;;;;5057998;28;20049;-74
2022/07/06 00:26:40;;;;;;;6.57;2.38;;;14.70;99.90;;;;;;5062098;28;20391;-74
2022/07/06 00:29:05;;;;;;;6.00;2.53;;;14.80;99.90;;;;;;5062247;28;20044;-74
2022/07/06 00:31:31;;;;;;;5.13;2.00;;;14.70;99.90;;;;;;5052062;28;20040;-74
2022/07/06 00:33:56;;;;;;;5.30;2.40;;;14.70;99.90;;;;;;5065212;28;20040;-74
2022/07/06 00:36:22;;;;;;;7.25;2.38;;;14.70;99.90;;;;;;5068335;28;20041;-74
2022/07/06 00:38:48;;;;;;;7.63;2.03;;;14.80;99.90;;;;;;5062753;28;20037;-74
2022/07/06 00:41:14;;;;;;;6.95;2.63;;;14.80;99.90;;;;;;5057093;28;20045;-74
2022/07/06 00:43:48;;;;;;;6.80;2.20;;;14.80;99.90;;;;;;5070166;28;20044;-74
2022/07/06 00:46:14;;;;;;;8.38;2.67;;;14.80;99.90;;;;;;5076084;28;20996;-74
2022/07/06 00:48:40;;;;;;;6.80;2.17;;;14.70;99.90;;;;;;5061295;28;20036;-74
2022/07/06 00:51:05;;;;;;;7.70;2.30;;;14.70;99.90;;;;;;5064592;28;20124;-74
2022/07/06 00:53:31;;;;;;;5.95;2.28;;;14.70;99.90;;;;;;5078548;28;20475;-75
2022/07/06 00:55:57;;;;;;;6.93;2.35;;;14.80;99.90;;;;;;5061305;28;20497;-74
2022/07/06 00:58:23;;;;;;;4.75;2.20;;;14.80;99.90;;;;;;5058439;28;20078;-74
2022/07/06 01:00:48;;;;;;;4.47;1.95;;;14.80;99.90;;;;;;5082093;28;20070;-74
2022/07/06 01:03:14;;;;;;;4.80;2.20;;;14.80;99.90;;;;;;5068469;28;21016;-74
2022/07/06 01:05:39;;;;;;;5.38;2.70;;;14.80;99.90;;;;;;5069636;28;20036;-74
2022/07/06 01:08:05;;;;;;;6.53;2.10;;;14.80;99.90;;;;;;5073182;28;20376;-74
2022/07/06 01:10:31;;;;;;;4.38;2.10;;;14.80;99.90;;;;;;5082458;28;20547;-75
2022/07/06 01:12:57;;;;;;;7.00;2.10;;;14.70;99.90;;;;;;5084074;28;20058;-74
2022/07/06 01:15:24;;;;;;;4.28;2.00;;;14.80;99.90;;;;;;5054667;28;20071;-74
2022/07/06 01:17:50;;;;;;;;;;;14.80;99.90;;;;;;5071867;28;20428;-74
2022/07/06 01:20:17;;;;;;;5.97;2.05;;;14.70;99.90;;;;;;5078214;28;20003;-74
2022/07/06 01:22:48;;;;;;;7.07;2.72;;;14.70;99.90;;;;;;5064952;28;20048;-74
2022/07/06 01:25:14;;;;;;;6.38;2.50;;;14.70;99.90;;;;;;5085464;28;20388;-74
2022/07/06 01:27:42;;;;;;;5.82;2.63;;;14.70;99.90;;;;;;5086103;28;20526;-75
2022/07/06 01:30:11;;;;;;;4.55;1.98;;;14.70;99.90;;;;;;5078344;28;20044;-74
2022/07/06 01:32:37;;;;;;;5.18;2.22;;;14.70;99.90;;;;;;5060870;28;20044;-75
2022/07/06 01:35:07;;;;;;;5.10;2.33;;;14.70;99.90;;;;;;5069176;28;20049;-74
2022/07/06 01:37:33;;;;;;;7.35;2.50;;;14.80;99.90;;;;;;5085416;28;20040;-74
2022/07/06 01:40:04;;;;;;;7.88;2.30;;;14.70;99.90;;;;;;5077543;28;20050;-73
2022/07/06 01:42:29;;;;;;;6.55;2.03;;;14.70;99.90;;;;;;5053134;28;20060;-74
2022/07/06 01:44:55;;;;;;;5.82;2.00;;;14.70;99.90;;;;;;5070353;28;20098;-74
2022/07/06 01:47:21;;;;;;;4.57;2.10;;;14.80;99.90;;;;;;5058795;28;20544;-74
2022/07/06 01:49:47;;;;;;;6.50;2.33;;;14.80;99.90;;;;;;5067763;28;20037;-74
2022/07/06 01:52:13;;;;;;;4.95;2.20;;;14.80;99.90;;;;;;5058144;28;20399;-74
2022/07/06 01:54:38;;;;;;;5.93;2.38;;;14.70;99.90;;;;;;5076104;28;20040;-74
2022/07/06 01:57:04;;;;;;;6.90;2.55;;;14.70;99.90;;;;;;5058509;28;20036;-74
2022/07/06 01:59:30;;;;;;;6.00;2.63;;;14.70;99.90;;;;;;5086147;28;20055;-72
2022/07/06 02:01:55;;;;;;;4.93;2.20;;;14.70;99.90;;;;;;5058395;28;20126;-73
2022/07/06 02:04:21;;;;;;;4.80;2.60;;;14.60;99.90;;;;;;5065418;28;20545;-74
2022/07/06 02:06:47;;;;;;;7.65;2.75;;;14.60;99.90;;;;;;5081081;28;20043;-74
2022/07/06 02:09:13;;;;;;;5.35;2.80;;;14.60;99.90;;;;;;5070218;28;20044;-73
2022/07/06 02:11:38;;;;;;;6.32;2.72;;;14.70;99.90;;;;;;5074251;28;20685;-74
2022/07/06 02:14:04;;;;;;;6.70;2.80;;;14.60;99.90;;;;;;5066952;28;20049;-74
2022/07/06 02:16:30;;;;;;;5.18;2.55;;;14.60;99.90;;;;;;5087347;28;20074;-74
2022/07/06 02:18:55;;;;;;;5.13;2.60;;;14.60;99.90;;;;;;5081511;28;20068;-74
2022/07/06 02:21:21;;;;;;;10.48;3.25;;;14.60;99.90;;;;;;5076359;28;20024;-74
2022/07/06 02:23:47;;;;;;;5.45;2.55;;;14.50;99.90;;;;;;5078384;28;20040;-74
2022/07/06 02:26:12;;;;;;;7.40;3.22;;;14.50;99.90;;;;;;5086007;28;20036;-74
2022/07/06 02:28:38;;;;;;;6.53;2.80;;;14.50;99.90;;;;;;5068685;28;20531;-74
2022/07/06 02:31:04;;;;;;;5.93;2.33;;;14.50;99.90;;;;;;5087554;28;20032;-74
2022/07/06 02:33:30;;;;;;;7.13;2.83;;;14.50;99.90;;;;;;5075481;28;20165;-74
2022/07/06 02:35:56;;;;;;;7.97;3.40;;;14.50;99.90;;;;;;5057831;28;20070;-74
2022/07/06 02:38:21;;;;;;;8.55;2.72;;;14.50;99.90;;;;;;5081743;28;20068;-74
2022/07/06 02:40:47;;;;;;;7.65;2.80;;;14.50;99.90;;;;;;5068705;28;20044;-74
2022/07/06 02:43:13;;;;;;;7.00;3.03;;;14.50;99.90;;;;;;5077471;28;20070;-74
2022/07/06 02:45:39;;;;;;;5.57;2.47;;;14.50;99.90;;;;;;5066348;28;20040;-74
2022/07/06 02:48:05;;;;;;;5.82;2.80;;;14.50;99.90;;;;;;5070410;28;20059;-74
2022/07/06 02:50:30;;;;;;;7.32;2.55;;;14.50;99.90;;;;;;5086718;28;20040;-74
2022/07/06 02:52:56;;;;;;;6.43;3.00;;;14.50;99.90;;;;;;5063188;28;20048;-74
2022/07/06 02:55:22;;;;;;;6.25;2.70;;;14.50;99.90;;;;;;5085880;28;20115;-74
2022/07/06 02:57:47;;;;;;;6.05;3.05;;;14.50;99.90;;;;;;5073231;28;20048;-74
2022/07/06 03:00:13;;;;;;;8.35;2.85;;;14.50;99.90;;;;;;5054011;28;20032;-74
2022/07/06 03:02:39;;;;;;;9.23;3.22;;;14.50;99.90;;;;;;5067584;28;20037;-74
2022/07/06 03:05:05;;;;;;;6.63;2.80;;;14.50;99.90;;;;;;5068239;28;20045;-74
2022/07/06 03:07:31;;;;;;;5.63;2.95;;;14.50;99.90;;;;;;5057092;28;20040;-74
2022/07/06 03:09:56;;;;;;;5.82;2.55;;;14.40;99.90;;;;;;5068354;28;20130;-74
2022/07/06 03:12:22;;;;;;;7.38;3.15;;;14.50;99.90;;;;;;5068739;28;20044;-74
2022/07/06 03:14:48;;;;;;;7.32;2.90;;;14.50;99.90;;;;;;5078012;28;20411;-74
2022/07/06 03:17:13;;;;;;;6.35;2.90;;;14.50;99.90;;;;;;5068172;28;20039;-73
2022/07/06 03:19:39;;;;;;;8.02;2.95;;;14.50;99.90;;;;;;5081946;28;20036;-73
2022/07/06 03:22:05;;;;;;;7.22;2.83;;;14.60;99.90;;;;;;5078152;28;20043;-74
2022/07/06 03:24:30;;;;;;;5.68;2.53;;;14.60;99.90;;;;;;5076577;28;21001;-74
2022/07/06 03:26:56;;;;;;;5.53;2.75;;;14.60;99.90;;;;;;5067764;28;20119;-74
2022/07/06 03:29:22;;;;;;;9.85;3.03;;;14.60;99.90;;;;;;5067879;28;20033;-74
2022/07/06 03:31:47;;;;;;;6.30;2.70;;;14.60;99.90;;;;;;5071047;28;20072;-74
2022/07/06 03:34:13;;;;;;;6.82;2.67;;;14.60;99.90;;;;;;5067395;28;20044;-73
2022/07/06 03:36:39;;;;;;;6.18;2.70;;;14.60;99.90;;;;;;5068427;28;20047;-74
2022/07/06 03:39:05;;;;;;;6.07;2.47;;;14.50;99.90;;;;;;5077860;28;20037;-73
2022/07/06 03:41:32;;;;;;;5.72;3.00;;;14.50;99.90;;;;;;5077859;28;20075;-74
2022/07/06 03:43:57;;;;;;;6.93;3.03;;;14.50;99.90;;;;;;5069101;28;20139;-74
2022/07/06 03:46:23;;;;;;;7.22;3.20;;;14.50;99.90;;;;;;5067614;28;20845;-73
2022/07/06 03:48:49;;;;;;;6.45;3.00;;;14.50;99.90;;;;;;5069335;28;20588;-74
2022/07/06 03:51:14;;;;;;;6.88;3.05;;;14.50;99.90;;;;;;5068479;28;20044;-74
2022/07/06 03:53:40;;;;;;;7.28;2.92;;;14.50;99.90;;;;;;5074883;28;20166;-74
2022/07/06 03:58:49;;;;;;;9.27;3.00;;;14.50;99.90;;;;;;5068095;28;20048;-75
2022/07/06 04:01:15;;;;;;;9.13;3.40;;;14.50;99.90;;;;;;5053583;28;20060;-75
2022/07/06 04:03:41;;;;;;;8.02;3.17;;;14.60;99.90;;;;;;5067216;28;20067;-74
2022/07/06 04:06:06;;;;;;;7.80;3.33;;;14.50;99.90;;;;;;5048873;28;20044;-75
2022/07/06 04:08:32;;;;;;;8.57;3.55;;;14.60;99.90;;;;;;5067231;28;20170;-74
2022/07/06 04:10:58;;;;;;;5.32;3.10;;;14.60;99.90;;;;;;5080486;28;20067;-75
2022/07/06 04:13:25;;;;;;;7.22;3.20;;;14.60;99.90;;;;;;5083156;28;20032;-74
2022/07/06 04:15:51;;;;;;;6.97;2.90;;;14.60;99.90;;;;;;5066383;28;20495;-75
2022/07/06 04:18:17;;;;;;;7.00;3.03;;;14.60;99.90;;;;;;5058098;28;20148;-74
2022/07/06 04:20:42;;;;;;;7.80;3.33;;;14.60;99.90;;;;;;5071159;28;20147;-74
2022/07/06 04:23:08;;;;;;;7.45;3.08;;;14.70;99.90;;;;;;5085682;28;20090;-75
2022/07/06 04:25:34;;;;;;;9.48;3.55;;;14.70;99.90;;;;;;5064805;28;20362;-74
2022/07/06 04:28:00;;;;;;;7.85;3.35;;;14.70;99.90;;;;;;5069569;28;20372;-75
2022/07/06 04:30:25;;;;;;;6.60;3.13;;;14.80;99.90;;;;;;5072064;28;20048;-74
2022/07/06 04:32:51;;;;;;;7.50;3.42;;;14.70;99.90;;;;;;5067113;28;20090;-74
2022/07/06 04:35:17;;;;;;;12.68;3.33;;;14.80;99.90;;;;;;5086257;28;20054;-74
2022/07/06 04:37:43;;;;;;;6.60;3.22;;;14.80;99.90;;;;;;5073617;28;20607;-74
2022/07/06 04:40:09;;;;;;;10.05;3.28;;;14.80;99.90;;;;;;5089431;28;20104;-74
2022/07/06 04:42:34;;;;;;;9.10;3.28;;;14.80;99.90;;;;;;5089148;28;20051;-74
2022/07/06 04:45:00;;;;;;;5.82;2.85;;;14.90;99.90;;;;;;5068319;28;20570;-74
2022/07/06 04:47:26;;;;;;;6.95;3.10;;;14.90;99.90;;;;;;5062502;28;20048;-74
2022/07/06 04:49:51;;;;;;;6.97;3.60;;;15.00;99.90;;;;;;5089763;28;20071;-74
2022/07/06 04:52:17;;;;;;;10.18;3.75;;;15.10;99.90;;;;;;5086528;28;20511;-74
2022/07/06 04:54:43;;;;;;;8.48;3.38;;;15.00;99.90;;;;;;5084379;28;20099;-74
2022/07/06 04:57:08;;;;;;;7.20;3.30;;;15.10;99.90;;;;;;5073161;28;20064;-74
2022/07/06 04:59:34;;;;;;;8.35;2.88;;;15.20;99.90;;;;;;5069750;28;20044;-74
2022/07/06 05:02:00;;;;;;;7.13;2.70;;;15.20;99.90;;;;;;5070606;28;20044;-74
2022/07/06 05:04:25;;;;;;;7.30;2.83;;;15.20;99.90;;;;;;5089657;28;20094;-74
2022/07/06 05:06:51;;;;;;;8.50;2.97;;;15.20;99.90;;;;;;5077181;28;20032;-74
2022/07/06 05:09:16;;;;;;;6.10;2.50;;;15.20;99.90;;;;;;5089100;28;20051;-75
2022/07/06 05:11:42;;;;;;;4.95;2.60;;;15.20;99.90;;;;;;5068041;28;20135;-75
2022/07/06 05:14:08;;;;;;;6.53;2.40;;;15.30;99.90;;;;;;5068137;28;20450;-74
2022/07/06 05:16:33;;;;;;;6.00;2.90;;;15.30;99.90;;;;;;5077780;28;20040;-74
2022/07/06 05:18:59;;;;;;;6.63;2.10;;;15.40;99.90;;;;;;5079184;28;20156;-75
2022/07/06 05:21:25;;;;;;;3.33;2.10;;;15.40;99.90;;;;;;5063837;28;20060;-74
2022/07/06 05:23:50;;;;;;;8.43;2.75;;;15.50;99.90;;;;;;5062890;28;20473;-74
2022/07/06 05:26:16;;;;;;;5.38;2.08;;;15.60;99.90;;;;;;5080388;28;20048;-75
2022/07/06 05:28:42;;;;;;;6.40;2.60;;;15.60;99.90;;;;;;5068723;28;20376;-74
2022/07/06 05:31:07;;;;;;;6.30;1.90;;;15.60;99.90;;;;;;5066356;28;20048;-74
2022/07/06 05:33:33;;;;;;;5.75;2.03;;;15.60;99.90;;;;;;5081539;28;20028;-74
2022/07/06 05:35:58;;;;;;;5.78;2.00;;;15.70;99.90;;;;;;5086267;28;20453;-75
2022/07/06 05:38:24;;;;;;;5.78;1.90;;;15.80;99.90;;;;;;5068049;28;20036;-74
2022/07/06 05:40:50;;;;;;;7.35;2.05;;;15.80;99.90;;;;;;5066829;28;20046;-74
2022/07/06 05:43:17;;;;;;;6.20;1.50;;;15.80;99.90;;;;;;5070557;28;20139;-75
2022/07/06 05:45:43;;;;;;;4.88;1.70;;;15.80;99.90;;;;;;5068063;28;20045;-75
2022/07/06 05:50:53;;;;;;;3.97;1.65;;;15.90;99.90;;;;;;5071600;28;20044;-75
2022/07/06 05:53:19;;;;;;;4.85;1.40;;;16.00;99.90;;;;;;5064082;28;20101;-75
2022/07/06 05:55:46;;;;;;;3.50;1.48;;;16.10;99.90;;;;;;5071753;28;20051;-74
2022/07/06 05:58:11;;;;;;;4.20;1.30;;;16.20;99.90;;;;;;5076965;28;20092;-74
2022/07/06 06:00:37;;;;;;;5.40;1.55;;;16.20;99.90;;;;;;5070063;28;20048;-73
2022/07/06 06:03:03;;;;;;;5.35;1.38;;;16.30;99.90;;;;;;5068848;28;20067;-73
2022/07/06 06:05:28;;;;;;;5.20;1.50;;;16.40;99.90;;;;;;5063268;28;20044;-73
2022/07/06 06:07:54;;;;;;;4.78;1.20;;;16.40;99.90;;;;;;5068772;28;20051;-74
2022/07/06 06:10:21;;;;;;;5.28;1.02;;;16.40;99.90;;;;;;5077297;28;20047;-73
2022/07/06 06:12:47;;;;;;;;;;;16.50;99.90;;;;;;5071676;28;20476;-73
2022/07/06 06:15:13;;;;;;;3.25;1.10;;;16.50;99.90;;;;;;5067815;28;19930;-74
2022/07/06 06:17:39;;;;;;;4.65;1.08;;;16.50;99.90;;;;;;5056683;28;20509;-73
2022/07/06 06:20:08;;;;;;;3.47;1.10;;;16.50;99.90;;;;;;5079411;28;20032;-73
2022/07/06 06:22:46;;;;;;;6.30;1.35;;;16.40;99.90;;;;;;5074212;28;20051;-74
2022/07/06 06:25:12;;;;;;;5.60;1.20;;;16.40;99.90;;;;;;5075178;28;20036;-74
2022/07/06 06:27:37;;;;;;;5.63;1.10;;;16.40;99.90;;;;;;5057930;28;20696;-74
2022/07/06 06:30:03;;;;;;;6.93;1.25;;;16.40;99.90;;;;;;5061882;28;20198;-74
2022/07/06 06:32:29;;;;;;;6.88;1.10;;;16.40;99.90;;;;;;5056863;28;20474;-74
2022/07/06 06:34:55;;;;;;;4.68;1.00;;;16.40;99.90;;;;;;5059614;28;20051;-74
2022/07/06 06:37:20;;;;;;;6.45;1.10;;;16.40;99.90;;;;;;5061780;28;20048;-74
2022/07/06 06:39:46;;;;;;;7.60;1.25;;;16.30;99.90;;;;;;5067814;28;20036;-74
2022/07/06 06:42:11;;;;;;;4.07;1.13;;;16.30;99.90;;;;;;5069722;28;21494;-74
2022/07/06 06:44:37;;;;;;;5.30;1.20;;;16.40;99.90;;;;;;5085670;28;20044;-74
2022/07/06 06:47:03;;;;;;;4.88;1.10;;;16.40;99.90;;;;;;5057321;28;20071;-74
2022/07/06 06:49:28;;;;;;;5.40;1.00;;;16.40;99.90;;;;;;5053894;28;20549;-74
2022/07/06 06:51:54;;;;;;;4.30;0.93;;;16.50;99.90;;;;;;5071583;28;20047;-74
2022/07/06 06:54:19;;;;;;;7.38;1.20;;;16.40;99.90;;;;;;5066549;28;20052;-74
2022/07/06 06:56:45;;;;;;;5.68;1.30;;;16.50;99.90;;;;;;5071021;28;20044;-74
2022/07/06 06:59:11;;;;;;;3.67;0.85;;;16.50;99.90;;;;;;5078891;28;20047;-74
2022/07/06 07:01:36;;;;;;;7.60;1.33;;;16.60;99.90;;;;;;5086172;28;20047;-74
2022/07/06 07:04:02;;;;;;;6.22;1.10;;;16.60;99.90;;;;;;5077902;28;20414;-74
2022/07/06 07:06:27;;;;;;;4.25;1.08;;;16.70;99.90;;;;;;5060856;28;20379;-74
2022/07/06 07:08:55;;;;;;;5.03;1.13;;;16.70;99.90;;;;;;5076691;28;20080;-74
2022/07/06 07:11:20;;;;;;;7.45;1.20;;;16.80;99.90;;;;;;5068160;28;20059;-74
2022/07/06 07:13:46;;;;;;;7.53;1.30;;;16.80;99.90;;;;;;5076243;28;20039;-74
2022/07/06 07:16:11;;;;;;;5.80;1.00;;;16.90;99.90;;;;;;5060430;28;20048;-74
2022/07/06 07:18:37;;;;;;;7.50;1.08;;;16.90;99.90;;;;;;5070509;28;20044;-77
2022/07/06 07:21:03;;;;;;;5.05;1.13;;;16.90;99.90;;;;;;5060741;28;20399;-75
2022/07/06 07:23:28;;;;;;;5.03;1.10;;;16.90;99.90;;;;;;5075738;28;20086;-73
2022/07/06 07:25:54;;;;;;;5.22;1.13;;;17.00;99.90;;;;;;5067725;28;20051;-73
2022/07/06 07:28:19;;;;;;;4.93;1.45;;;17.00;99.90;;;;;;5062581;28;20063;-71
2022/07/06 07:30:45;;;;;;;4.72;1.10;;;16.90;99.90;;;;;;5071885;28;20072;-71
2022/07/06 07:33:11;;;;;;;5.55;1.40;;;16.90;99.90;;;;;;5059865;28;20536;-72
2022/07/06 07:35:36;;;;;;;4.93;0.70;;;16.90;99.90;;;;;;5085587;28;20076;-72
2022/07/06 07:38:02;;;;;;;4.68;1.02;;;17.00;99.90;;;;;;5067763;28;20471;-72
2022/07/06 07:40:27;;;;;;;6.82;1.02;;;17.00;99.90;;;;;;5088482;28;20036;-72
2022/07/06 07:42:53;;;;;;;7.32;1.35;;;17.00;99.90;;;;;;5080976;28;20469;-72
2022/07/06 07:45:19;;;;;;;3.67;0.88;;;17.10;99.90;;;;;;5066155;28;20055;-72
2022/07/06 07:47:44;;;;;;;4.32;0.95;;;17.10;99.90;;;;;;5065036;28;20036;-72
2022/07/06 07:50:10;;;;;;;3.38;0.80;;;17.20;99.90;;;;;;5068702;28;20479;-72
2022/07/06 07:52:36;;;;;;;2.67;0.80;;;17.30;99.90;;;;;;5062990;28;20040;-72
2022/07/06 07:55:02;;;;;;;5.13;1.20;;;17.20;99.90;;;;;;5078571;28;20425;-73
2022/07/06 07:57:28;;;;;;;3.67;0.82;;;17.30;99.90;;;;;;5071788;28;20455;-73
2022/07/06 07:59:53;;;;;;;5.25;1.02;;;17.30;99.90;;;;;;5079605;28;20075;-70
2022/07/06 08:02:19;;;;;;;3.67;1.00;;;17.40;99.90;;;;;;5070356;28;20403;-73
2022/07/06 08:04:44;;;;;;;5.30;0.95;;;17.40;99.90;;;;;;5071973;28;20054;-73
2022/07/06 08:07:10;;;;;;;3.97;0.98;;;17.50;99.90;;;;;;5071168;28;20129;-73
2022/07/06 08:09:36;;;;;;;3.90;0.82;;;17.60;99.90;;;;;;5074615;28;20048;-74
2022/07/06 08:12:01;;;;;;;4.15;0.93;;;17.70;99.90;;;;;;5079751;28;20041;-74
2022/07/06 08:14:27;;;;;;;4.93;0.90;;;17.70;99.90;;;;;;5084650;28;20506;-74
2022/07/06 08:16:53;;;;;;;3.63;0.90;;;17.60;99.90;;;;;;5068512;28;20051;-74
2022/07/06 08:19:18;;;;;;;4.80;1.02;;;17.60;99.90;;;;;;5060807;28;20403;-74
2022/07/06 08:21:44;;;;;;;5.45;0.80;;;17.40;99.90;;;;;;5090938;28;20123;-75
2022/07/06 08:24:11;;;;;;;4.55;0.90;;;17.30;99.90;;;;;;5076871;28;20043;-73
2022/07/06 08:26:36;;;;;;;3.15;0.95;;;17.20;99.90;;;;;;5070867;28;20037;-74
2022/07/06 08:29:03;;;;;;;4.82;0.75;;;17.30;99.90;;;;;;5070771;28;20036;-71
2022/07/06 08:31:28;;;;;;;4.20;0.93;;;17.50;99.90;;;;;;5059549;28;20043;-71
2022/07/06 08:33:55;;;;;;;3.80;0.73;;;17.70;99.90;;;;;;5055839;28;20052;-72
2022/07/06 08:36:21;;;;;;;4.28;1.10;;;17.80;99.90;;;;;;5076772;28;20071;-71
2022/07/06 08:38:47;;;;;;;4.40;0.80;;;17.90;99.90;;;;;;5086977;28;20055;-71
2022/07/06 08:41:15;;;;;;;5.20;0.82;;;17.90;99.90;;;;;;5060164;28;20576;-69
2022/07/06 08:43:40;;;;;;;;;;;18.00;99.90;;;;;;5085736;28;20105;-70
2022/07/06 08:46:07;;;;;;;5.85;0.90;;;18.00;99.90;;;;;;5072155;28;19924;-70
2022/07/06 08:48:36;;;;;;;;;;;18.00;99.90;;;;;;5070791;28;20487;-70
2022/07/06 08:51:04;;;;;;;6.15;0.88;;;18.10;99.90;;;;;;5070929;28;19921;-70
2022/07/06 08:53:30;;;;;;;5.05;1.13;;;18.20;99.90;;;;;;5052921;28;20055;-70
2022/07/06 08:55:56;;;;;;;5.25;0.95;;;18.20;99.90;;;;;;5052284;28;20403;-70
2022/07/06 08:58:27;;;;;;;2.65;0.80;;;18.30;99.90;;;;;;5070247;28;20083;-70
2022/07/06 09:00:56;;;;;;;3.55;0.70;;;18.40;99.90;;;;;;5052947;28;20561;-70
2022/07/06 09:03:22;;;;;;;6.72;0.93;;;18.50;99.90;;;;;;5069426;28;20051;-70
2022/07/06 09:05:50;;;;;;;4.93;0.80;;;18.60;99.90;;;;;;5069996;28;20052;-69
2022/07/06 09:08:15;;;;;;;5.28;1.02;;;18.70;99.90;;;;;;5069878;28;20048;-70
2022/07/06 09:10:41;;;;;;;2.80;0.77;;;18.80;99.90;;;;;;5053030;28;20043;-70
2022/07/06 09:13:08;;;;;;;4.53;0.80;;;18.70;99.90;;;;;;5070703;28;20442;-70
2022/07/06 09:15:35;;;;;;;5.82;0.80;;;18.60;99.90;;;;;;5068366;28;20205;-70
2022/07/06 09:18:02;;;;;;;3.72;1.00;;;18.60;99.90;;;;;;5052321;28;20052;-70
2022/07/06 09:20:28;;;;;;;3.20;0.80;;;18.50;99.90;;;;;;5060630;28;20044;-69
2022/07/06 09:23:03;;;;;;;4.75;0.80;;;18.40;99.90;;;;;;5071793;28;20040;-71
2022/07/06 09:25:29;;;;;;;4.63;0.93;;;18.40;99.90;;;;;;5065478;28;20040;-70
2022/07/06 09:27:56;;;;;;;4.30;0.95;;;18.40;99.90;;;;;;5075447;28;20047;-71
2022/07/06 09:30:22;;;;;;;;;;;18.40;99.90;;;;;;5076353;28;20036;-71
2022/07/06 09:32:50;;;;;;;3.22;0.82;;;18.40;99.90;;;;;;5068779;28;20023;-71
2022/07/06 09:35:35;;;;;;;3.63;0.80;;;18.40;99.90;;;;;;5087500;28;20089;-69
2022/07/06 09:38:02;;;;;;;3.10;1.00;;;18.50;99.90;;;;;;5078091;28;20409;-70
2022/07/06 09:40:30;;;;;;;3.88;0.88;;;18.50;99.90;;;;;;5081021;28;20055;-70
2022/07/06 09:43:13;;;;;;;1.98;0.80;;;18.60;99.90;;;;;;5068282;28;20044;-70
2022/07/06 09:45:40;;;;;;;4.32;0.88;;;18.60;99.90;;;;;;5052894;28;20033;-69
2022/07/06 09:48:15;;;;;;;3.45;0.88;;;18.90;99.90;;;;;;5048708;28;20552;-70
2022/07/06 09:50:45;;;;;;;4.03;0.98;;;19.00;99.90;;;;;;5049622;28;20049;-70
2022/07/06 09:53:12;;;;;;;3.25;0.80;;;19.00;99.90;;;;;;5048444;28;20084;-70
2022/07/06 09:55:38;;;;;;;5.63;1.20;;;19.00;99.90;;;;;;5049780;28;20075;-70
2022/07/06 09:58:04;;;;;;;3.85;0.82;;;19.00;99.90;;;;;;5048909;28;20722;-70
2022/07/06 10:00:30;;;;;;;3.13;0.80;;;19.00;99.90;;;;;;5049553;28;20551;-70
2022/07/06 10:02:56;;;;;;;3.13;0.77;;;19.00;99.90;;;;;;5049608;28;20033;-70
2022/07/06 10:05:29;;;;;;;4.95;1.02;;;18.90;99.90;;;;;;5048460;28;20120;-70
2022/07/06 10:07:59;;;;;;;4.57;0.70;;;19.00;99.90;;;;;;5058792;28;20047;-70
2022/07/06 10:10:29;;;;;;;3.58;0.90;;;19.00;99.90;;;;;;5058118;28;20049;-72
2022/07/06 10:12:59;;;;;;;4.93;0.77;;;19.10;99.90;;;;;;5047567;28;20509;-73
2022/07/06 10:15:27;;;;;;;2.33;0.60;;;19.00;99.90;;;;;;5055316;28;20033;-72
2022/07/06 10:17:56;;;;;;;4.63;1.00;;;19.00;99.90;;;;;;5067870;28;20045;-71
2022/07/06 10:20:22;;;;;;;4.05;0.75;;;19.00;99.90;;;;;;5050588;28;20047;-72
2022/07/06 10:22:48;;;;;;;2.75;0.82;;;19.20;99.90;;;;;;5064071;28;20045;-72
2022/07/06 10:25:16;;;;;;;3.13;0.70;;;19.50;99.90;;;;;;5054671;28;20502;-71
2022/07/06 10:27:43;;;;;;;2.72;0.60;;;19.70;99.90;;;;;;5065066;28;20036;-71
2022/07/06 10:30:09;;;;;;;2.75;0.90;;;20.00;99.90;;;;;;5059839;28;20392;-72
2022/07/06 10:32:36;;;;;;;2.80;0.67;;;20.20;99.90;;;;;;5057528;28;20090;-73
2022/07/06 10:35:02;;;;;;;2.80;0.70;;;20.50;99.90;;;;;;5046963;28;20048;-78
2022/07/06 10:37:28;;;;;;;2.13;0.60;;;20.50;99.20;;;;;;5055987;28;20396;-72
2022/07/06 10:42:51;;;;;;;2.63;0.50;;;20.70;97.80;;;;;;5069741;28;20491;-70
2022/07/06 10:45:46;;;;;;;4.00;0.70;;;20.60;97.40;;;;;;5064536;28;20061;-70
2022/07/06 10:48:13;;;;;;;1.25;0.50;;;20.50;95.80;;;;;;5069584;28;20555;-70
2022/07/06 10:50:46;;;;;;;2.53;0.50;;;20.50;96.10;;;;;;5076298;28;20135;-70
2022/07/06 10:53:17;;;;;;;5.75;1.83;;;20.40;93.00;;;;;;5061634;28;20058;-70
2022/07/06 10:55:47;;;;;;;1.20;0.70;;;20.40;92.40;;;;;;5078649;28;20403;-71
2022/07/06 10:58:13;;;;;;;2.05;0.80;;;20.50;93.30;;;;;;5074863;28;20036;-69
2022/07/06 11:00:51;;;;;;;4.82;1.13;;;20.60;94.00;;;;;;5076831;28;20398;-71
2022/07/06 11:03:39;;;;;;;2.00;0.70;;;20.80;93.40;;;;;;5074691;28;20124;-69
2022/07/06 11:06:12;;;;;;;12.45;4.15;;;20.90;91.40;;;;;;5074398;28;20439;-71
2022/07/06 11:08:49;;;;;;;5.40;1.85;;;20.90;92.10;;;;;;5085236;28;20069;-73
2022/07/06 11:11:30;;;;;;;4.07;1.33;;;20.80;88.10;;;;;;5070398;28;20079;-72
2022/07/06 11:14:11;;;;;;;2.40;0.70;;;20.70;91.40;;;;;;5085861;28;20054;-73
2022/07/06 11:17:04;;;;;;;5.38;0.65;;;20.70;93.30;;;;;;5069942;28;20067;-72
2022/07/06 11:19:31;;;;;;;3.47;0.80;;;20.80;91.00;;;;;;5076771;28;20052;-71
2022/07/06 11:22:08;;;;;;;1.67;0.68;;;20.80;92.20;;;;;;5069488;28;20537;-71
2022/07/06 11:24:36;;;;;;;2.40;0.60;;;20.80;92.50;;;;;;5069784;28;20152;-71
2022/07/06 11:27:03;;;;;;;3.38;0.70;;;20.80;88.60;;;;;;5067546;28;20044;-71
2022/07/06 11:29:29;;;;;;;0.87;0.50;;;20.70;91.00;;;;;;5073094;28;20044;-71
2022/07/06 11:32:00;;;;;;;3.07;0.57;;;20.70;90.30;;;;;;5091864;28;20055;-70
2022/07/06 11:34:28;;;;;;;2.58;0.50;;;20.60;85.80;;;;;;5081724;28;20044;-72
2022/07/06 11:36:58;;;;;;;4.13;0.60;;;20.60;89.20;;;;;;5084876;28;20044;-73
2022/07/06 11:39:28;;;;;;;1.45;0.40;;;20.60;89.20;;;;;;5086697;28;20031;-72
2022/07/06 11:41:55;;;;;;;3.88;0.63;;;20.60;85.30;;;;;;5080606;28;20060;-72
2022/07/06 11:44:21;;;;;;;4.05;0.60;;;20.70;87.50;;;;;;5060163;28;20044;-73
2022/07/06 11:46:47;;;;;;;2.08;0.50;;;20.70;87.60;;;;;;5074287;28;20047;-72
2022/07/06 11:49:12;;;;;;;5.75;0.88;;;20.80;87.50;;;;;;5081909;28;20044;-70
2022/07/06 11:51:40;;;;;;;3.03;0.60;;;20.90;84.20;;;;;;5057758;28;20451;-70
2022/07/06 11:54:16;;;;;;;;;;;21.10;89.30;;;;;;5079033;28;20059;-70
2022/07/06 11:56:59;;;;;;;3.72;0.73;;;21.20;92.30;;;;;;5078511;28;19930;-70
2022/07/06 11:59:27;;;;;;;3.72;0.80;;;21.30;88.30;;;;;;5077491;28;20383;-69
2022/07/06 12:02:13;;;;;;;5.25;0.70;;;21.20;87.60;;;;;;5086108;28;20403;-71
2022/07/06 12:04:40;;;;;;;;;;;21.20;86.70;;;;;;5064952;28;20054;-71
2022/07/06 12:07:08;;;;;;;4.90;0.70;;;21.10;91.10;;;;;;5086170;28;19920;-71
2022/07/06 12:09:35;;;;;;;4.63;0.90;;;21.10;88.40;;;;;;5087516;28;20135;-71
2022/07/06 12:12:03;;;;;;;3.22;0.70;;;21.10;92.10;;;;;;5076574;28;20123;-72
2022/07/06 12:14:35;;;;;;;4.85;0.80;;;21.10;91.40;;;;;;5063456;28;20441;-71
2022/07/06 12:17:13;;;;;;;4.38;1.00;;;21.10;92.00;;;;;;5079684;28;20203;-71
2022/07/06 12:19:42;;;;;;;1.85;0.68;;;21.20;94.20;;;;;;5079428;28;20478;-72
2022/07/06 12:22:08;;;;;;;4.68;0.98;;;21.40;93.80;;;;;;5056520;28;20053;-72
2022/07/06 12:24:35;;;;;;;3.55;0.80;;;21.80;93.70;;;;;;5055457;28;20047;-70
2022/07/06 12:27:18;;;;;;;5.05;0.75;;;22.00;88.00;;;;;;5057638;28;20557;-70
2022/07/06 12:29:45;;;;;;;2.35;0.80;;;22.20;85.00;;;;;;5067853;28;20078;-70
2022/07/06 12:32:26;;;;;;;2.03;0.68;;;22.10;82.40;;;;;;5077986;28;20500;-70
2022/07/06 12:35:08;;;;;;;6.22;0.80;;;21.90;73.90;;;;;;5071177;28;20082;-70
2022/07/06 12:37:35;;;;;;;4.38;0.80;;;21.70;79.50;;;;;;5056605;28;20106;-70
2022/07/06 12:40:02;;;;;;;3.80;0.80;;;21.60;83.10;;;;;;5067260;28;20045;-69
2022/07/06 12:42:28;;;;;;;7.93;0.88;;;21.40;84.80;;;;;;5072093;28;20127;-71
2022/07/06 12:44:54;;;;;;;2.85;0.98;;;21.40;86.60;;;;;;5087733;28;20085;-71
2022/07/06 12:47:24;;;;;;;3.45;0.70;;;21.20;89.10;;;;;;5089084;28;20044;-71
2022/07/06 12:50:08;;;;;;;5.10;0.80;;;21.30;91.30;;;;;;5080661;28;20225;-71
2022/07/06 12:52:36;;;;;;;4.30;0.80;;;21.30;88.20;;;;;;5069984;28;20495;-71
2022/07/06 12:55:03;;;;;;;3.03;0.80;;;21.30;88.30;;;;;;5085983;28;20044;-71
2022/07/06 12:57:46;;;;;;;2.20;0.65;;;21.20;90.70;;;;;;5081524;28;20885;-72